Pagrindinis puslapis
METAR-TAF:

METAR-TAF

Oro uostai :

Konakris, Gvinėja

platuma: 09-34N, ilguma: 013-37W, Aukštis: 26 m

Dabartinis oras

Ataskaita buvo paskelbta 32 minutes, ne 00:00 UTC
Vėjas 6 kt iš Vakarų
Temperatūra 29°C
Drėgmė 74%
Slėgis 1012 hPa
Matomumas 10 km arba daugiau
Mažai debesys ne aukštis 1500 ft

METAR: GUCY 290000Z 27006KT 9999 FEW015 29/24 Q1012 NOSIG

Laikas: 00:32 (00:32 UTC)

Prognozė

Ataskaita buvo paskelbta 1 valandą ir 32 minutes, ne 23:00 UTC
Prognozė galioja nuo 29 metu 00 UTC su 30 metu 06 UTC
Vėjas 6 kt iš Vakarų
Matomumas 10 km arba daugiau
Mažai debesys ne aukštis 1500 ft
Išsisklaidę debesys ne aukštis 11000 ft
Tikimybė 30% :
Laikinai
nuo 29 metu 04 UTC su 29 metu 09 UTC
Vėjas 2 kt nuo kintamojo kryptimis
Matomumas: 4000 m
Išsisklaidę debesys ne aukštis 11000 ft
migla

TAF: GUCY 282300Z 2900/3006 28006KT 9999 FEW015 SCT110 PROB30 TEMPO 2904/2909 VRB02KT 4000 HZ SCT110

Orai ataskaitas ir orų prognozės (METAR, TAF).

turimą stotys yra geltonos ir raudonos taškus žemėlapyje.

Perkelti pele per norėdami pamatyti stoties vardą.

Tada spustelėkite, norėdami matyti oro stebėjimo ir prognozės.

Norėdami pakeisti žemėlapį: spustelėkite ant žalios mygtukų su juodo kryžiaus žemyn,; žalią mygtuką su brūkšneliu, jei norite nutolinti; arba žalių rodyklių gretimoms žemėlapius.


METAR-TAF: